sensor_id;sensor_type;location;lat;lon;timestamp;P1;durP1;ratioP1;P2;durP2;ratioP2
56399;SDS011;42298;53.638;9.876;2023-03-29T00:02:21;11.53;;;5.37;;
56399;SDS011;42298;53.638;9.876;2023-03-29T00:04:55;12.90;;;5.93;;
56399;SDS011;42298;53.638;9.876;2023-03-29T00:07:28;10.77;;;5.37;;
56399;SDS011;42298;53.638;9.876;2023-03-29T00:09:57;9.57;;;4.90;;
56399;SDS011;42298;53.638;9.876;2023-03-29T00:12:22;10.63;;;4.40;;
56399;SDS011;42298;53.638;9.876;2023-03-29T00:14:48;11.13;;;4.57;;
56399;SDS011;42298;53.638;9.876;2023-03-29T00:17:13;11.63;;;4.40;;
56399;SDS011;42298;53.638;9.876;2023-03-29T00:19:40;10.47;;;3.87;;
56399;SDS011;42298;53.638;9.876;2023-03-29T00:22:08;10.63;;;4.40;;
56399;SDS011;42298;53.638;9.876;2023-03-29T00:24:33;11.27;;;4.70;;
56399;SDS011;42298;53.638;9.876;2023-03-29T00:26:59;12.23;;;4.30;;
56399;SDS011;42298;53.638;9.876;2023-03-29T00:29:24;15.13;;;5.13;;
56399;SDS011;42298;53.638;9.876;2023-03-29T00:31:50;9.00;;;4.07;;
56399;SDS011;42298;53.638;9.876;2023-03-29T00:34:20;10.77;;;4.40;;
56399;SDS011;42298;53.638;9.876;2023-03-29T00:36:48;8.30;;;3.90;;
56399;SDS011;42298;53.638;9.876;2023-03-29T00:39:14;10.87;;;4.10;;
56399;SDS011;42298;53.638;9.876;2023-03-29T00:41:41;14.33;;;4.37;;
56399;SDS011;42298;53.638;9.876;2023-03-29T00:44:51;11.20;;;4.47;;
56399;SDS011;42298;53.638;9.876;2023-03-29T00:47:12;9.00;;;3.60;;
56399;SDS011;42298;53.638;9.876;2023-03-29T00:49:38;11.43;;;4.43;;
56399;SDS011;42298;53.638;9.876;2023-03-29T00:52:03;8.83;;;3.70;;
56399;SDS011;42298;53.638;9.876;2023-03-29T00:54:29;8.47;;;4.00;;
56399;SDS011;42298;53.638;9.876;2023-03-29T00:56:56;10.53;;;3.97;;
56399;SDS011;42298;53.638;9.876;2023-03-29T00:59:27;10.50;;;3.80;;
56399;SDS011;42298;53.638;9.876;2023-03-29T01:01:59;9.70;;;4.30;;
56399;SDS011;42298;53.638;9.876;2023-03-29T01:04:31;8.33;;;3.80;;
56399;SDS011;42298;53.638;9.876;2023-03-29T01:07:11;9.90;;;4.63;;
56399;SDS011;42298;53.638;9.876;2023-03-29T01:09:43;12.73;;;4.47;;
56399;SDS011;42298;53.638;9.876;2023-03-29T01:12:14;9.00;;;4.03;;
56399;SDS011;42298;53.638;9.876;2023-03-29T01:17:17;8.90;;;4.07;;
56399;SDS011;42298;53.638;9.876;2023-03-29T01:19:49;13.53;;;4.93;;
56399;SDS011;42298;53.638;9.876;2023-03-29T01:27:46;10.50;;;3.90;;
56399;SDS011;42298;53.638;9.876;2023-03-29T01:30:29;12.90;;;4.40;;
56399;SDS011;42298;53.638;9.876;2023-03-29T01:33:09;10.67;;;4.27;;
56399;SDS011;42298;53.638;9.876;2023-03-29T01:35:55;10.10;;;3.77;;
56399;SDS011;42298;53.638;9.876;2023-03-29T01:38:35;9.87;;;4.33;;
56399;SDS011;42298;53.638;9.876;2023-03-29T01:41:06;9.30;;;4.40;;
56399;SDS011;42298;53.638;9.876;2023-03-29T01:43:37;11.53;;;4.10;;
56399;SDS011;42298;53.638;9.876;2023-03-29T01:46:33;9.57;;;3.50;;
56399;SDS011;42298;53.638;9.876;2023-03-29T01:49:11;10.47;;;4.47;;
56399;SDS011;42298;53.638;9.876;2023-03-29T01:52:05;9.67;;;3.83;;
56399;SDS011;42298;53.638;9.876;2023-03-29T01:54:38;10.60;;;4.30;;
56399;SDS011;42298;53.638;9.876;2023-03-29T01:57:08;10.93;;;4.77;;
56399;SDS011;42298;53.638;9.876;2023-03-29T01:59:37;10.57;;;4.30;;
56399;SDS011;42298;53.638;9.876;2023-03-29T02:02:07;9.23;;;4.10;;
56399;SDS011;42298;53.638;9.876;2023-03-29T02:04:40;9.10;;;3.67;;
56399;SDS011;42298;53.638;9.876;2023-03-29T02:07:19;8.80;;;3.90;;
56399;SDS011;42298;53.638;9.876;2023-03-29T02:09:49;11.77;;;4.47;;
56399;SDS011;42298;53.638;9.876;2023-03-29T02:12:16;9.97;;;4.13;;
56399;SDS011;42298;53.638;9.876;2023-03-29T02:14:42;9.03;;;3.83;;
56399;SDS011;42298;53.638;9.876;2023-03-29T02:17:19;8.97;;;4.23;;
56399;SDS011;42298;53.638;9.876;2023-03-29T02:19:50;8.33;;;3.67;;
56399;SDS011;42298;53.638;9.876;2023-03-29T02:22:37;7.87;;;3.87;;
56399;SDS011;42298;53.638;9.876;2023-03-29T02:25:13;7.40;;;3.50;;
56399;SDS011;42298;53.638;9.876;2023-03-29T02:27:40;9.10;;;4.00;;
56399;SDS011;42298;53.638;9.876;2023-03-29T02:30:07;8.47;;;3.63;;
56399;SDS011;42298;53.638;9.876;2023-03-29T02:35:09;9.43;;;3.83;;
56399;SDS011;42298;53.638;9.876;2023-03-29T02:37:38;7.17;;;3.40;;
56399;SDS011;42298;53.638;9.876;2023-03-29T02:40:07;8.80;;;3.83;;
56399;SDS011;42298;53.638;9.876;2023-03-29T02:42:37;7.00;;;3.77;;
56399;SDS011;42298;53.638;9.876;2023-03-29T02:45:04;8.50;;;3.90;;
56399;SDS011;42298;53.638;9.876;2023-03-29T02:47:32;8.70;;;4.43;;
56399;SDS011;42298;53.638;9.876;2023-03-29T02:50:02;10.83;;;4.00;;
56399;SDS011;42298;53.638;9.876;2023-03-29T02:52:30;10.13;;;3.87;;
56399;SDS011;42298;53.638;9.876;2023-03-29T02:54:59;10.50;;;3.83;;
56399;SDS011;42298;53.638;9.876;2023-03-29T02:57:27;8.47;;;3.67;;
56399;SDS011;42298;53.638;9.876;2023-03-29T02:59:53;8.07;;;3.43;;
56399;SDS011;42298;53.638;9.876;2023-03-29T03:02:21;11.67;;;3.80;;
56399;SDS011;42298;53.638;9.876;2023-03-29T03:04:49;8.33;;;3.77;;
56399;SDS011;42298;53.638;9.876;2023-03-29T03:07:15;10.73;;;3.37;;
56399;SDS011;42298;53.638;9.876;2023-03-29T03:09:43;12.03;;;3.40;;
56399;SDS011;42298;53.638;9.876;2023-03-29T03:12:10;11.33;;;4.20;;
56399;SDS011;42298;53.638;9.876;2023-03-29T03:14:35;8.17;;;3.50;;
56399;SDS011;42298;53.638;9.876;2023-03-29T03:17:01;8.33;;;3.83;;
56399;SDS011;42298;53.638;9.876;2023-03-29T03:19:26;8.80;;;3.30;;
56399;SDS011;42298;53.638;9.876;2023-03-29T03:21:52;9.17;;;3.73;;
56399;SDS011;42298;53.638;9.876;2023-03-29T03:24:19;9.63;;;3.90;;
56399;SDS011;42298;53.638;9.876;2023-03-29T03:26:44;10.53;;;3.90;;
56399;SDS011;42298;53.638;9.876;2023-03-29T03:29:10;9.67;;;3.67;;
56399;SDS011;42298;53.638;9.876;2023-03-29T03:31:38;10.83;;;3.77;;
56399;SDS011;42298;53.638;9.876;2023-03-29T03:34:05;11.80;;;3.70;;
56399;SDS011;42298;53.638;9.876;2023-03-29T03:36:32;9.97;;;3.67;;
56399;SDS011;42298;53.638;9.876;2023-03-29T03:38:58;9.70;;;3.93;;
56399;SDS011;42298;53.638;9.876;2023-03-29T03:41:24;11.97;;;3.73;;
56399;SDS011;42298;53.638;9.876;2023-03-29T03:43:50;9.87;;;4.20;;
56399;SDS011;42298;53.638;9.876;2023-03-29T03:46:16;9.67;;;3.83;;
56399;SDS011;42298;53.638;9.876;2023-03-29T03:48:42;14.07;;;4.03;;
56399;SDS011;42298;53.638;9.876;2023-03-29T03:51:08;8.90;;;3.77;;
56399;SDS011;42298;53.638;9.876;2023-03-29T03:53:34;9.70;;;3.90;;
56399;SDS011;42298;53.638;9.876;2023-03-29T03:55:59;13.47;;;3.90;;
56399;SDS011;42298;53.638;9.876;2023-03-29T03:58:32;10.37;;;4.03;;
56399;SDS011;42298;53.638;9.876;2023-03-29T04:00:58;11.60;;;4.53;;
56399;SDS011;42298;53.638;9.876;2023-03-29T04:03:23;12.43;;;4.37;;
56399;SDS011;42298;53.638;9.876;2023-03-29T04:05:49;9.60;;;4.00;;
56399;SDS011;42298;53.638;9.876;2023-03-29T04:08:14;8.30;;;3.70;;
56399;SDS011;42298;53.638;9.876;2023-03-29T04:10:41;9.00;;;3.70;;
56399;SDS011;42298;53.638;9.876;2023-03-29T04:13:06;10.17;;;4.00;;
56399;SDS011;42298;53.638;9.876;2023-03-29T04:15:32;9.57;;;3.90;;
56399;SDS011;42298;53.638;9.876;2023-03-29T04:18:02;9.00;;;3.80;;
56399;SDS011;42298;53.638;9.876;2023-03-29T04:20:28;12.97;;;4.50;;
56399;SDS011;42298;53.638;9.876;2023-03-29T04:22:54;11.37;;;4.30;;
56399;SDS011;42298;53.638;9.876;2023-03-29T04:25:19;11.93;;;4.60;;
56399;SDS011;42298;53.638;9.876;2023-03-29T04:27:46;11.27;;;4.63;;
56399;SDS011;42298;53.638;9.876;2023-03-29T04:30:13;12.07;;;5.63;;
56399;SDS011;42298;53.638;9.876;2023-03-29T04:32:39;12.50;;;5.17;;
56399;SDS011;42298;53.638;9.876;2023-03-29T04:35:04;10.47;;;4.83;;
56399;SDS011;42298;53.638;9.876;2023-03-29T04:37:30;11.77;;;5.40;;
56399;SDS011;42298;53.638;9.876;2023-03-29T04:39:56;10.90;;;5.07;;
56399;SDS011;42298;53.638;9.876;2023-03-29T04:42:25;15.47;;;5.30;;
56399;SDS011;42298;53.638;9.876;2023-03-29T04:44:51;12.30;;;5.47;;
56399;SDS011;42298;53.638;9.876;2023-03-29T04:47:17;14.73;;;5.90;;
56399;SDS011;42298;53.638;9.876;2023-03-29T04:49:43;12.53;;;5.67;;
56399;SDS011;42298;53.638;9.876;2023-03-29T04:52:09;12.77;;;6.07;;
56399;SDS011;42298;53.638;9.876;2023-03-29T04:54:35;13.13;;;6.60;;
56399;SDS011;42298;53.638;9.876;2023-03-29T04:57:01;16.93;;;7.27;;
56399;SDS011;42298;53.638;9.876;2023-03-29T04:59:27;16.97;;;7.07;;
56399;SDS011;42298;53.638;9.876;2023-03-29T05:01:52;14.03;;;6.73;;
56399;SDS011;42298;53.638;9.876;2023-03-29T05:04:18;14.17;;;7.23;;
56399;SDS011;42298;53.638;9.876;2023-03-29T05:06:44;12.47;;;6.40;;
56399;SDS011;42298;53.638;9.876;2023-03-29T05:09:09;13.60;;;7.03;;
56399;SDS011;42298;53.638;9.876;2023-03-29T05:11:35;17.20;;;8.27;;
56399;SDS011;42298;53.638;9.876;2023-03-29T05:14:02;13.90;;;7.73;;
56399;SDS011;42298;53.638;9.876;2023-03-29T05:16:31;14.27;;;7.17;;
56399;SDS011;42298;53.638;9.876;2023-03-29T05:18:58;14.97;;;7.50;;
56399;SDS011;42298;53.638;9.876;2023-03-29T05:21:24;18.23;;;8.23;;
56399;SDS011;42298;53.638;9.876;2023-03-29T05:23:52;14.50;;;8.37;;
56399;SDS011;42298;53.638;9.876;2023-03-29T05:26:17;15.10;;;8.00;;
56399;SDS011;42298;53.638;9.876;2023-03-29T05:28:43;17.17;;;8.60;;
56399;SDS011;42298;53.638;9.876;2023-03-29T05:31:08;15.50;;;7.90;;
56399;SDS011;42298;53.638;9.876;2023-03-29T05:33:34;14.60;;;8.33;;
56399;SDS011;42298;53.638;9.876;2023-03-29T05:36:09;15.53;;;9.20;;
56399;SDS011;42298;53.638;9.876;2023-03-29T05:38:37;16.57;;;9.30;;
56399;SDS011;42298;53.638;9.876;2023-03-29T05:41:03;16.50;;;10.40;;
56399;SDS011;42298;53.638;9.876;2023-03-29T05:43:30;16.77;;;8.87;;
56399;SDS011;42298;53.638;9.876;2023-03-29T05:45:57;15.77;;;9.27;;
56399;SDS011;42298;53.638;9.876;2023-03-29T05:48:23;17.33;;;10.33;;
56399;SDS011;42298;53.638;9.876;2023-03-29T05:50:50;15.33;;;9.33;;
56399;SDS011;42298;53.638;9.876;2023-03-29T05:53:18;16.77;;;9.40;;
56399;SDS011;42298;53.638;9.876;2023-03-29T05:55:45;14.77;;;8.73;;
56399;SDS011;42298;53.638;9.876;2023-03-29T05:58:11;17.67;;;9.93;;
56399;SDS011;42298;53.638;9.876;2023-03-29T06:00:40;15.03;;;9.43;;
56399;SDS011;42298;53.638;9.876;2023-03-29T06:03:06;17.23;;;9.40;;
56399;SDS011;42298;53.638;9.876;2023-03-29T06:05:33;17.77;;;9.77;;
56399;SDS011;42298;53.638;9.876;2023-03-29T06:07:59;15.47;;;9.80;;
56399;SDS011;42298;53.638;9.876;2023-03-29T06:10:25;16.30;;;9.37;;
56399;SDS011;42298;53.638;9.876;2023-03-29T06:12:51;16.43;;;9.40;;
56399;SDS011;42298;53.638;9.876;2023-03-29T06:15:16;14.37;;;9.40;;
56399;SDS011;42298;53.638;9.876;2023-03-29T06:17:42;16.87;;;10.00;;
56399;SDS011;42298;53.638;9.876;2023-03-29T06:20:11;15.27;;;9.13;;
56399;SDS011;42298;53.638;9.876;2023-03-29T06:22:38;15.20;;;9.07;;
56399;SDS011;42298;53.638;9.876;2023-03-29T06:25:04;15.73;;;9.13;;
56399;SDS011;42298;53.638;9.876;2023-03-29T06:27:30;16.53;;;9.67;;
56399;SDS011;42298;53.638;9.876;2023-03-29T06:29:56;15.93;;;9.43;;
56399;SDS011;42298;53.638;9.876;2023-03-29T06:32:24;15.87;;;9.53;;
56399;SDS011;42298;53.638;9.876;2023-03-29T06:34:52;16.70;;;9.23;;
56399;SDS011;42298;53.638;9.876;2023-03-29T06:37:18;16.07;;;9.07;;
56399;SDS011;42298;53.638;9.876;2023-03-29T06:39:44;15.43;;;9.67;;
56399;SDS011;42298;53.638;9.876;2023-03-29T06:42:09;14.67;;;9.00;;
56399;SDS011;42298;53.638;9.876;2023-03-29T06:44:36;14.07;;;9.20;;
56399;SDS011;42298;53.638;9.876;2023-03-29T06:47:01;15.70;;;9.50;;
56399;SDS011;42298;53.638;9.876;2023-03-29T06:49:27;16.50;;;9.43;;
56399;SDS011;42298;53.638;9.876;2023-03-29T06:51:53;14.17;;;8.97;;
56399;SDS011;42298;53.638;9.876;2023-03-29T06:54:18;15.27;;;8.73;;
56399;SDS011;42298;53.638;9.876;2023-03-29T06:56:44;13.87;;;8.60;;
56399;SDS011;42298;53.638;9.876;2023-03-29T06:59:12;20.63;;;9.40;;
56399;SDS011;42298;53.638;9.876;2023-03-29T07:01:39;14.37;;;8.57;;
56399;SDS011;42298;53.638;9.876;2023-03-29T07:04:06;15.57;;;8.13;;
56399;SDS011;42298;53.638;9.876;2023-03-29T07:06:33;14.83;;;9.10;;
56399;SDS011;42298;53.638;9.876;2023-03-29T07:09:00;17.33;;;9.57;;
56399;SDS011;42298;53.638;9.876;2023-03-29T07:11:26;19.47;;;9.00;;
56399;SDS011;42298;53.638;9.876;2023-03-29T07:13:51;13.43;;;7.70;;
56399;SDS011;42298;53.638;9.876;2023-03-29T07:16:17;15.07;;;7.93;;
56399;SDS011;42298;53.638;9.876;2023-03-29T07:18:43;13.57;;;7.90;;
56399;SDS011;42298;53.638;9.876;2023-03-29T07:21:09;16.17;;;8.20;;
56399;SDS011;42298;53.638;9.876;2023-03-29T07:23:36;13.60;;;7.93;;
56399;SDS011;42298;53.638;9.876;2023-03-29T07:26:02;13.63;;;8.07;;
56399;SDS011;42298;53.638;9.876;2023-03-29T07:28:32;12.73;;;7.13;;
56399;SDS011;42298;53.638;9.876;2023-03-29T07:31:09;13.50;;;7.23;;
56399;SDS011;42298;53.638;9.876;2023-03-29T07:33:36;13.63;;;6.70;;
56399;SDS011;42298;53.638;9.876;2023-03-29T07:36:02;12.27;;;7.60;;
56399;SDS011;42298;53.638;9.876;2023-03-29T07:38:29;13.47;;;7.70;;
56399;SDS011;42298;53.638;9.876;2023-03-29T07:40:56;14.90;;;7.27;;
56399;SDS011;42298;53.638;9.876;2023-03-29T07:43:23;13.10;;;6.63;;
56399;SDS011;42298;53.638;9.876;2023-03-29T07:45:49;14.23;;;6.93;;
56399;SDS011;42298;53.638;9.876;2023-03-29T07:48:16;13.17;;;6.83;;
56399;SDS011;42298;53.638;9.876;2023-03-29T07:50:42;11.73;;;6.60;;
56399;SDS011;42298;53.638;9.876;2023-03-29T07:53:09;12.63;;;6.63;;
56399;SDS011;42298;53.638;9.876;2023-03-29T07:55:36;13.40;;;7.00;;
56399;SDS011;42298;53.638;9.876;2023-03-29T07:58:11;13.27;;;6.87;;
56399;SDS011;42298;53.638;9.876;2023-03-29T08:00:40;13.33;;;6.70;;
56399;SDS011;42298;53.638;9.876;2023-03-29T08:03:09;14.07;;;6.70;;
56399;SDS011;42298;53.638;9.876;2023-03-29T08:05:35;12.00;;;6.17;;
56399;SDS011;42298;53.638;9.876;2023-03-29T08:08:00;13.73;;;6.40;;
56399;SDS011;42298;53.638;9.876;2023-03-29T08:10:26;12.23;;;6.10;;
56399;SDS011;42298;53.638;9.876;2023-03-29T08:12:51;13.17;;;6.70;;
56399;SDS011;42298;53.638;9.876;2023-03-29T08:15:17;13.13;;;5.73;;
56399;SDS011;42298;53.638;9.876;2023-03-29T08:17:42;13.57;;;6.30;;
56399;SDS011;42298;53.638;9.876;2023-03-29T08:20:10;11.47;;;6.20;;
56399;SDS011;42298;53.638;9.876;2023-03-29T08:22:37;10.37;;;5.53;;
56399;SDS011;42298;53.638;9.876;2023-03-29T08:25:05;11.43;;;6.20;;
56399;SDS011;42298;53.638;9.876;2023-03-29T08:27:31;11.70;;;6.37;;
56399;SDS011;42298;53.638;9.876;2023-03-29T08:30:01;12.17;;;6.00;;
56399;SDS011;42298;53.638;9.876;2023-03-29T08:32:28;11.27;;;6.00;;
56399;SDS011;42298;53.638;9.876;2023-03-29T08:34:53;12.70;;;6.13;;
56399;SDS011;42298;53.638;9.876;2023-03-29T08:37:19;11.40;;;6.03;;
56399;SDS011;42298;53.638;9.876;2023-03-29T08:39:44;11.73;;;5.50;;
56399;SDS011;42298;53.638;9.876;2023-03-29T08:50:53;10.40;;;5.60;;
56399;SDS011;42298;53.638;9.876;2023-03-29T08:55:57;11.03;;;5.87;;
56399;SDS011;42298;53.638;9.876;2023-03-29T08:58:27;11.87;;;5.83;;
56399;SDS011;42298;53.638;9.876;2023-03-29T09:00:56;12.27;;;6.30;;
56399;SDS011;42298;53.638;9.876;2023-03-29T09:03:25;10.90;;;6.07;;
56399;SDS011;42298;53.638;9.876;2023-03-29T09:05:56;12.17;;;7.00;;
56399;SDS011;42298;53.638;9.876;2023-03-29T09:08:26;12.30;;;6.80;;
56399;SDS011;42298;53.638;9.876;2023-03-29T09:19:22;11.70;;;6.17;;
56399;SDS011;42298;53.638;9.876;2023-03-29T09:22:28;18.80;;;5.40;;
56399;SDS011;42298;53.638;9.876;2023-03-29T09:30:19;10.50;;;5.57;;
56399;SDS011;42298;53.638;9.876;2023-03-29T09:33:32;16.43;;;7.67;;
56399;SDS011;42298;53.638;9.876;2023-03-29T09:39:02;11.30;;;5.60;;
56399;SDS011;42298;53.638;9.876;2023-03-29T09:41:39;10.03;;;5.50;;
56399;SDS011;42298;53.638;9.876;2023-03-29T09:44:34;10.93;;;6.00;;
56399;SDS011;42298;53.638;9.876;2023-03-29T09:47:25;10.57;;;5.80;;
56399;SDS011;42298;53.638;9.876;2023-03-29T09:49:58;12.37;;;5.43;;
56399;SDS011;42298;53.638;9.876;2023-03-29T09:52:30;12.10;;;5.93;;
56399;SDS011;42298;53.638;9.876;2023-03-29T09:54:56;10.87;;;5.33;;
56399;SDS011;42298;53.638;9.876;2023-03-29T09:57:24;12.30;;;5.97;;
56399;SDS011;42298;53.638;9.876;2023-03-29T09:59:51;12.33;;;5.73;;
56399;SDS011;42298;53.638;9.876;2023-03-29T10:02:17;11.33;;;6.43;;
56399;SDS011;42298;53.638;9.876;2023-03-29T10:04:44;12.00;;;6.10;;
56399;SDS011;42298;53.638;9.876;2023-03-29T10:07:18;12.40;;;6.23;;
56399;SDS011;42298;53.638;9.876;2023-03-29T10:09:44;12.23;;;6.00;;
56399;SDS011;42298;53.638;9.876;2023-03-29T10:12:10;12.83;;;6.43;;
56399;SDS011;42298;53.638;9.876;2023-03-29T10:14:44;13.23;;;6.63;;
56399;SDS011;42298;53.638;9.876;2023-03-29T10:17:24;12.50;;;5.97;;
56399;SDS011;42298;53.638;9.876;2023-03-29T10:20:03;12.60;;;6.50;;
56399;SDS011;42298;53.638;9.876;2023-03-29T10:22:33;11.33;;;6.03;;
56399;SDS011;42298;53.638;9.876;2023-03-29T10:25:01;12.67;;;6.37;;
56399;SDS011;42298;53.638;9.876;2023-03-29T10:27:29;13.30;;;6.50;;
56399;SDS011;42298;53.638;9.876;2023-03-29T10:29:58;13.20;;;7.17;;
56399;SDS011;42298;53.638;9.876;2023-03-29T10:32:33;13.97;;;6.40;;
56399;SDS011;42298;53.638;9.876;2023-03-29T10:37:31;12.27;;;6.73;;
56399;SDS011;42298;53.638;9.876;2023-03-29T10:39:57;12.50;;;6.97;;
56399;SDS011;42298;53.638;9.876;2023-03-29T10:42:23;15.70;;;6.93;;
56399;SDS011;42298;53.638;9.876;2023-03-29T10:44:53;13.50;;;6.80;;
56399;SDS011;42298;53.638;9.876;2023-03-29T10:47:22;12.53;;;7.13;;
56399;SDS011;42298;53.638;9.876;2023-03-29T10:49:56;12.47;;;6.73;;
56399;SDS011;42298;53.638;9.876;2023-03-29T10:52:23;13.47;;;7.43;;
56399;SDS011;42298;53.638;9.876;2023-03-29T10:54:51;12.90;;;6.60;;
56399;SDS011;42298;53.638;9.876;2023-03-29T10:58:06;13.47;;;7.00;;
56399;SDS011;42298;53.638;9.876;2023-03-29T11:00:12;13.53;;;7.23;;
56399;SDS011;42298;53.638;9.876;2023-03-29T11:05:38;11.23;;;6.43;;
56399;SDS011;42298;53.638;9.876;2023-03-29T11:19:30;14.93;;;7.80;;
56399;SDS011;42298;53.638;9.876;2023-03-29T11:25:19;15.37;;;7.97;;
56399;SDS011;42298;53.638;9.876;2023-03-29T11:30:42;15.17;;;7.47;;
56399;SDS011;42298;53.638;9.876;2023-03-29T11:36:04;12.97;;;7.80;;
56399;SDS011;42298;53.638;9.876;2023-03-29T11:38:45;16.97;;;7.63;;
56399;SDS011;42298;53.638;9.876;2023-03-29T11:41:25;14.20;;;8.67;;
56399;SDS011;42298;53.638;9.876;2023-03-29T11:44:09;14.97;;;8.23;;
56399;SDS011;42298;53.638;9.876;2023-03-29T11:46:41;13.83;;;8.17;;
56399;SDS011;42298;53.638;9.876;2023-03-29T11:49:31;13.97;;;8.23;;
56399;SDS011;42298;53.638;9.876;2023-03-29T12:02:41;14.10;;;9.00;;
56399;SDS011;42298;53.638;9.876;2023-03-29T12:05:17;15.93;;;8.97;;
56399;SDS011;42298;53.638;9.876;2023-03-29T12:19:33;13.37;;;8.23;;
56399;SDS011;42298;53.638;9.876;2023-03-29T12:22:22;14.43;;;9.05;;
56399;SDS011;42298;53.638;9.876;2023-03-29T12:24:47;13.38;;;8.73;;
56399;SDS011;42298;53.638;9.876;2023-03-29T12:27:23;14.32;;;8.80;;
56399;SDS011;42298;53.638;9.876;2023-03-29T12:29:57;16.48;;;9.23;;
56399;SDS011;42298;53.638;9.876;2023-03-29T12:35:38;13.40;;;8.17;;
56399;SDS011;42298;53.638;9.876;2023-03-29T12:38:16;17.80;;;9.30;;
56399;SDS011;42298;53.638;9.876;2023-03-29T12:40:53;14.20;;;9.17;;
56399;SDS011;42298;53.638;9.876;2023-03-29T12:43:24;13.73;;;8.30;;
56399;SDS011;42298;53.638;9.876;2023-03-29T12:45:55;15.70;;;8.93;;
56399;SDS011;42298;53.638;9.876;2023-03-29T12:48:27;12.73;;;8.90;;
56399;SDS011;42298;53.638;9.876;2023-03-29T12:50:54;12.70;;;8.57;;
56399;SDS011;42298;53.638;9.876;2023-03-29T12:53:33;14.27;;;8.53;;
56399;SDS011;42298;53.638;9.876;2023-03-29T13:03:48;15.32;;;8.63;;
56399;SDS011;42298;53.638;9.876;2023-03-29T13:06:49;14.05;;;8.07;;
56399;SDS011;42298;53.638;9.876;2023-03-29T13:09:30;14.88;;;8.65;;
56399;SDS011;42298;53.638;9.876;2023-03-29T13:14:40;12.48;;;8.07;;
56399;SDS011;42298;53.638;9.876;2023-03-29T13:17:10;13.27;;;8.43;;
56399;SDS011;42298;53.638;9.876;2023-03-29T13:22:38;14.15;;;8.15;;
56399;SDS011;42298;53.638;9.876;2023-03-29T13:33:52;16.38;;;9.32;;
56399;SDS011;42298;53.638;9.876;2023-03-29T13:39:13;13.98;;;8.40;;
56399;SDS011;42298;53.638;9.876;2023-03-29T13:41:50;12.43;;;8.32;;
56399;SDS011;42298;53.638;9.876;2023-03-29T13:46:46;12.55;;;8.07;;
56399;SDS011;42298;53.638;9.876;2023-03-29T13:49:17;16.55;;;8.60;;
56399;SDS011;42298;53.638;9.876;2023-03-29T13:52:04;14.93;;;8.35;;
56399;SDS011;42298;53.638;9.876;2023-03-29T13:54:56;12.85;;;7.93;;
56399;SDS011;42298;53.638;9.876;2023-03-29T13:57:31;12.55;;;8.05;;
56399;SDS011;42298;53.638;9.876;2023-03-29T14:00:05;13.25;;;8.50;;
56399;SDS011;42298;53.638;9.876;2023-03-29T14:05:22;13.10;;;8.30;;
56399;SDS011;42298;53.638;9.876;2023-03-29T14:07:55;14.23;;;8.35;;
56399;SDS011;42298;53.638;9.876;2023-03-29T14:10:28;11.45;;;7.60;;
56399;SDS011;42298;53.638;9.876;2023-03-29T14:13:00;14.80;;;9.52;;
56399;SDS011;42298;53.638;9.876;2023-03-29T14:15:35;14.93;;;8.45;;
56399;SDS011;42298;53.638;9.876;2023-03-29T14:18:10;14.65;;;9.10;;
56399;SDS011;42298;53.638;9.876;2023-03-29T14:20:41;13.35;;;8.52;;
56399;SDS011;42298;53.638;9.876;2023-03-29T14:23:10;15.52;;;9.15;;
56399;SDS011;42298;53.638;9.876;2023-03-29T14:25:40;13.90;;;8.85;;
56399;SDS011;42298;53.638;9.876;2023-03-29T14:28:25;12.40;;;8.82;;
56399;SDS011;42298;53.638;9.876;2023-03-29T14:30:54;11.55;;;7.78;;
56399;SDS011;42298;53.638;9.876;2023-03-29T14:33:24;14.88;;;10.00;;
56399;SDS011;42298;53.638;9.876;2023-03-29T14:35:51;12.45;;;7.90;;
56399;SDS011;42298;53.638;9.876;2023-03-29T14:38:17;14.13;;;9.20;;
56399;SDS011;42298;53.638;9.876;2023-03-29T14:40:43;14.02;;;8.70;;
56399;SDS011;42298;53.638;9.876;2023-03-29T14:43:10;14.18;;;9.18;;
56399;SDS011;42298;53.638;9.876;2023-03-29T14:45:41;11.80;;;8.10;;
56399;SDS011;42298;53.638;9.876;2023-03-29T14:48:09;14.00;;;9.25;;
56399;SDS011;42298;53.638;9.876;2023-03-29T14:50:36;11.98;;;8.30;;
56399;SDS011;42298;53.638;9.876;2023-03-29T14:53:03;13.32;;;8.80;;
56399;SDS011;42298;53.638;9.876;2023-03-29T14:55:34;13.65;;;9.27;;
56399;SDS011;42298;53.638;9.876;2023-03-29T14:58:02;13.98;;;7.88;;
56399;SDS011;42298;53.638;9.876;2023-03-29T15:00:39;13.95;;;8.88;;
56399;SDS011;42298;53.638;9.876;2023-03-29T15:03:12;13.32;;;9.50;;
56399;SDS011;42298;53.638;9.876;2023-03-29T15:05:40;14.07;;;9.00;;
56399;SDS011;42298;53.638;9.876;2023-03-29T15:08:18;15.13;;;9.57;;
56399;SDS011;42298;53.638;9.876;2023-03-29T15:10:58;13.57;;;9.23;;
56399;SDS011;42298;53.638;9.876;2023-03-29T15:13:26;14.00;;;9.53;;
56399;SDS011;42298;53.638;9.876;2023-03-29T15:15:52;15.52;;;9.48;;
56399;SDS011;42298;53.638;9.876;2023-03-29T15:18:27;11.43;;;8.00;;
56399;SDS011;42298;53.638;9.876;2023-03-29T15:20:56;15.45;;;9.65;;
56399;SDS011;42298;53.638;9.876;2023-03-29T15:23:23;15.70;;;9.40;;
56399;SDS011;42298;53.638;9.876;2023-03-29T15:25:51;17.73;;;9.90;;
56399;SDS011;42298;53.638;9.876;2023-03-29T15:28:32;15.73;;;9.20;;
56399;SDS011;42298;53.638;9.876;2023-03-29T15:31:02;14.75;;;10.07;;
56399;SDS011;42298;53.638;9.876;2023-03-29T15:33:35;13.63;;;9.48;;
56399;SDS011;42298;53.638;9.876;2023-03-29T15:36:02;14.90;;;10.02;;
56399;SDS011;42298;53.638;9.876;2023-03-29T15:38:29;15.32;;;9.52;;
56399;SDS011;42298;53.638;9.876;2023-03-29T15:40:55;15.02;;;9.75;;
56399;SDS011;42298;53.638;9.876;2023-03-29T15:43:21;13.38;;;9.40;;
56399;SDS011;42298;53.638;9.876;2023-03-29T15:45:47;15.93;;;10.10;;
56399;SDS011;42298;53.638;9.876;2023-03-29T15:48:13;14.27;;;9.18;;
56399;SDS011;42298;53.638;9.876;2023-03-29T15:50:50;15.00;;;9.32;;
56399;SDS011;42298;53.638;9.876;2023-03-29T15:53:17;14.60;;;9.13;;
56399;SDS011;42298;53.638;9.876;2023-03-29T15:55:46;14.20;;;8.77;;
56399;SDS011;42298;53.638;9.876;2023-03-29T15:58:14;14.50;;;10.05;;
56399;SDS011;42298;53.638;9.876;2023-03-29T16:00:43;14.18;;;10.15;;
56399;SDS011;42298;53.638;9.876;2023-03-29T16:03:14;15.45;;;10.48;;
56399;SDS011;42298;53.638;9.876;2023-03-29T16:05:42;14.20;;;9.90;;
56399;SDS011;42298;53.638;9.876;2023-03-29T16:08:09;14.50;;;10.15;;
56399;SDS011;42298;53.638;9.876;2023-03-29T16:10:35;14.20;;;10.80;;
56399;SDS011;42298;53.638;9.876;2023-03-29T16:13:01;15.50;;;10.90;;
56399;SDS011;42298;53.638;9.876;2023-03-29T16:15:26;15.88;;;10.93;;
56399;SDS011;42298;53.638;9.876;2023-03-29T16:17:52;16.63;;;11.95;;
56399;SDS011;42298;53.638;9.876;2023-03-29T16:20:17;16.10;;;11.10;;
56399;SDS011;42298;53.638;9.876;2023-03-29T16:22:44;15.82;;;10.75;;
56399;SDS011;42298;53.638;9.876;2023-03-29T16:25:17;17.10;;;11.02;;
56399;SDS011;42298;53.638;9.876;2023-03-29T16:27:46;15.13;;;10.93;;
56399;SDS011;42298;53.638;9.876;2023-03-29T16:30:12;14.27;;;10.15;;
56399;SDS011;42298;53.638;9.876;2023-03-29T16:32:37;16.70;;;10.18;;
56399;SDS011;42298;53.638;9.876;2023-03-29T16:35:04;16.27;;;10.95;;
56399;SDS011;42298;53.638;9.876;2023-03-29T16:37:31;14.40;;;10.98;;
56399;SDS011;42298;53.638;9.876;2023-03-29T16:39:56;15.25;;;10.05;;
56399;SDS011;42298;53.638;9.876;2023-03-29T16:42:22;16.38;;;9.95;;
56399;SDS011;42298;53.638;9.876;2023-03-29T16:44:47;14.90;;;10.38;;
56399;SDS011;42298;53.638;9.876;2023-03-29T16:47:12;17.17;;;10.60;;
56399;SDS011;42298;53.638;9.876;2023-03-29T16:49:38;14.65;;;10.50;;
56399;SDS011;42298;53.638;9.876;2023-03-29T16:52:03;15.68;;;10.05;;